Time;durP1;ratioP1;P1;durP2;ratioP2;P2;SDS_P1;SDS_P2;PMS_P1;PMS_P2;Temp;Humidity;BMP_temperature;BMP_pressure;BME280_temperature;BME280_humidity;BME280_pressure;Samples;Min_cycle;Max_cycle;Signal;HPM_P1;HPM_P2
2021/06/30 00:00:08;;;;;;;36.90;34.50;;;;;;;;;;4992181;28;20461;-71
2021/06/30 00:02:35;;;;;;;39.20;36.40;;;;;;;;;;4992375;28;20450;-72
2021/06/30 00:05:04;;;;;;;37.87;35.27;;;;;;;;;;4992733;28;20451;-71
2021/06/30 00:07:32;;;;;;;41.57;38.70;;;;;;;;;;4991875;28;20963;-72
2021/06/30 00:09:59;;;;;;;41.03;38.43;;;;;;;;;;4992173;28;20490;-71
2021/06/30 00:12:26;;;;;;;39.37;36.80;;;;;;;;;;4991898;28;20524;-71
2021/06/30 00:14:55;;;;;;;41.00;37.67;;;;;;;;;;4992464;28;20482;-71
2021/06/30 00:17:23;;;;;;;38.67;35.93;;;;;;;;;;4991849;28;20957;-72
2021/06/30 00:19:50;;;;;;;39.43;36.93;;;;;;;;;;4992184;28;21041;-71
2021/06/30 00:22:19;;;;;;;38.13;35.80;;;;;;;;;;4991968;28;20457;-71
2021/06/30 00:24:46;;;;;;;37.93;35.50;;;;;;;;;;4992244;28;20798;-71
2021/06/30 00:27:13;;;;;;;37.80;35.03;;;;;;;;;;4991687;28;20450;-71
2021/06/30 00:29:40;;;;;;;37.27;34.77;;;;;;;;;;4992307;28;20842;-71
2021/06/30 00:32:08;;;;;;;39.70;37.00;;;;;;;;;;4992080;28;20465;-71
2021/06/30 00:34:35;;;;;;;38.20;35.57;;;;;;;;;;4992250;28;20498;-71
2021/06/30 00:37:02;;;;;;;38.67;35.90;;;;;;;;;;4991649;28;20968;-71
2021/06/30 00:39:30;;;;;;;37.87;35.33;;;;;;;;;;4995689;28;20477;-71
2021/06/30 00:41:58;;;;;;;39.13;36.33;;;;;;;;;;4996021;28;20449;-71
2021/06/30 00:44:25;;;;;;;37.70;35.30;;;;;;;;;;4995867;28;20452;-71
2021/06/30 00:46:52;;;;;;;41.33;38.63;;;;;;;;;;4995678;28;20445;-71
2021/06/30 00:49:19;;;;;;;39.13;36.60;;;;;;;;;;4995703;28;20470;-71
2021/06/30 00:51:46;;;;;;;38.93;36.33;;;;;;;;;;4996401;28;20820;-71
2021/06/30 00:54:13;;;;;;;39.60;37.10;;;;;;;;;;4996954;28;20493;-71
2021/06/30 00:56:42;;;;;;;37.77;35.23;;;;;;;;;;4996776;28;20903;-71
2021/06/30 00:59:12;;;;;;;40.80;37.97;;;;;;;;;;4996466;28;20479;-71
2021/06/30 01:01:39;;;;;;;40.60;37.90;;;;;;;;;;4996778;28;20446;-71
2021/06/30 01:04:06;;;;;;;39.80;36.67;;;;;;;;;;4998682;28;20453;-71
2021/06/30 01:06:33;;;;;;;39.17;36.60;;;;;;;;;;4998110;28;20465;-71
2021/06/30 01:09:03;;;;;;;40.00;37.50;;;;;;;;;;4995724;28;20569;-71
2021/06/30 01:11:31;;;;;;;41.37;38.67;;;;;;;;;;4995362;28;20493;-71
2021/06/30 01:13:59;;;;;;;39.83;37.23;;;;;;;;;;4995458;28;20453;-71
2021/06/30 01:16:26;;;;;;;40.27;37.60;;;;;;;;;;4995281;28;20456;-71
2021/06/30 01:18:53;;;;;;;39.93;37.23;;;;;;;;;;4995449;28;20466;-71
2021/06/30 01:21:20;;;;;;;38.00;35.30;;;;;;;;;;4995152;28;20942;-72
2021/06/30 01:23:49;;;;;;;38.37;35.93;;;;;;;;;;4995225;28;20456;-71
2021/06/30 01:26:16;;;;;;;40.50;37.73;;;;;;;;;;4994703;28;20458;-71
2021/06/30 01:28:44;;;;;;;39.57;37.07;;;;;;;;;;4994872;28;20462;-71
2021/06/30 01:31:11;;;;;;;39.90;37.10;;;;;;;;;;4995897;28;20453;-71
2021/06/30 01:33:38;;;;;;;37.60;35.20;;;;;;;;;;4996457;28;20461;-71
2021/06/30 01:36:06;;;;;;;39.73;37.10;;;;;;;;;;4996119;28;20576;-71
2021/06/30 01:38:35;;;;;;;39.30;36.43;;;;;;;;;;4996280;28;20471;-71
2021/06/30 01:41:03;;;;;;;38.70;36.23;;;;;;;;;;4996247;28;20450;-71
2021/06/30 01:43:31;;;;;;;38.87;36.23;;;;;;;;;;4996673;28;20461;-72
2021/06/30 01:45:58;;;;;;;38.10;35.30;;;;;;;;;;4996996;28;20454;-71
2021/06/30 01:48:25;;;;;;;39.87;37.07;;;;;;;;;;4998702;28;20466;-71
2021/06/30 01:50:53;;;;;;;38.10;35.70;;;;;;;;;;4994613;28;20459;-71
2021/06/30 01:53:20;;;;;;;40.27;37.67;;;;;;;;;;4994596;28;20454;-71
2021/06/30 01:55:48;;;;;;;39.00;36.50;;;;;;;;;;4994602;28;20492;-71
2021/06/30 01:58:19;;;;;;;38.57;36.17;;;;;;;;;;4993959;28;20845;-71
2021/06/30 02:00:49;;;;;;;39.50;36.90;;;;;;;;;;4994122;28;20453;-71
2021/06/30 02:03:16;;;;;;;42.63;39.50;;;;;;;;;;4994601;28;20435;-71
2021/06/30 02:05:44;;;;;;;41.53;38.60;;;;;;;;;;4994593;28;20450;-71
2021/06/30 02:08:11;;;;;;;41.23;38.63;;;;;;;;;;5016352;23;20482;-70
2021/06/30 02:10:38;;;;;;;41.73;38.90;;;;;;;;;;4970912;28;20490;-71
2021/06/30 02:13:06;;;;;;;41.03;38.33;;;;;;;;;;4973700;28;20563;-70
2021/06/30 02:15:35;;;;;;;41.57;38.77;;;;;;;;;;4974432;28;20487;-70
2021/06/30 02:18:04;;;;;;;45.53;42.33;;;;;;;;;;4974437;28;20542;-71
2021/06/30 02:20:31;;;;;;;48.70;45.20;;;;;;;;;;4974038;28;20473;-71
2021/06/30 02:22:58;;;;;;;47.77;44.17;;;;;;;;;;4974319;28;20462;-71
2021/06/30 02:25:27;;;;;;;50.37;46.47;;;;;;;;;;4974341;28;20443;-70
2021/06/30 02:27:55;;;;;;;55.70;51.03;;;;;;;;;;4974339;28;20455;-72
2021/06/30 02:30:24;;;;;;;57.60;52.43;;;;;;;;;;4974131;28;20563;-71
2021/06/30 02:32:53;;;;;;;61.23;55.47;;;;;;;;;;4974336;28;20451;-71
2021/06/30 02:35:21;;;;;;;63.53;57.53;;;;;;;;;;4973525;28;20865;-70
2021/06/30 02:37:49;;;;;;;63.80;57.57;;;;;;;;;;4974020;28;20447;-71
2021/06/30 02:40:18;;;;;;;64.57;58.13;;;;;;;;;;4973655;28;20566;-70
2021/06/30 02:42:46;;;;;;;63.27;57.27;;;;;;;;;;4974078;28;20461;-71
2021/06/30 02:45:14;;;;;;;65.40;58.60;;;;;;;;;;4974061;28;20539;-71
2021/06/30 02:47:42;;;;;;;70.17;62.77;;;;;;;;;;4973870;28;20530;-71
2021/06/30 02:50:11;;;;;;;70.90;63.67;;;;;;;;;;4973857;28;20481;-71
2021/06/30 02:52:39;;;;;;;64.93;58.63;;;;;;;;;;4973821;28;20455;-71
2021/06/30 02:55:06;;;;;;;67.77;60.70;;;;;;;;;;4973663;28;20483;-71
2021/06/30 02:57:34;;;;;;;67.17;60.33;;;;;;;;;;4973647;28;20451;-71
2021/06/30 03:00:01;;;;;;;67.47;59.87;;;;;;;;;;4973484;28;20560;-71
2021/06/30 03:02:28;;;;;;;66.60;59.97;;;;;;;;;;4973228;28;20456;-71
2021/06/30 03:04:55;;;;;;;68.57;61.53;;;;;;;;;;4973582;28;20447;-71
2021/06/30 03:07:23;;;;;;;69.07;61.87;;;;;;;;;;4973394;28;20447;-72
2021/06/30 03:09:50;;;;;;;68.37;61.37;;;;;;;;;;4973102;28;20486;-72
2021/06/30 03:12:18;;;;;;;69.43;62.50;;;;;;;;;;4973155;28;20942;-71
2021/06/30 03:14:45;;;;;;;68.70;61.37;;;;;;;;;;4973497;28;20482;-69
2021/06/30 03:17:12;;;;;;;69.20;62.30;;;;;;;;;;4973303;28;20447;-70
2021/06/30 03:19:39;;;;;;;71.70;64.27;;;;;;;;;;4972850;28;20474;-69
2021/06/30 03:22:06;;;;;;;73.27;65.57;;;;;;;;;;4973051;28;20456;-71
2021/06/30 03:24:34;;;;;;;70.07;63.33;;;;;;;;;;4973062;28;20896;-70
2021/06/30 03:27:02;;;;;;;70.90;63.70;;;;;;;;;;4973027;28;20466;-70
2021/06/30 03:29:29;;;;;;;69.50;62.83;;;;;;;;;;4972990;28;20809;-70
2021/06/30 03:31:56;;;;;;;72.23;65.03;;;;;;;;;;4973009;28;20473;-70
2021/06/30 03:34:23;;;;;;;67.47;61.07;;;;;;;;;;4973187;28;20857;-71
2021/06/30 03:36:50;;;;;;;66.67;60.37;;;;;;;;;;4973177;28;20497;-70
2021/06/30 03:39:17;;;;;;;67.80;61.30;;;;;;;;;;4973082;28;20467;-70
2021/06/30 03:41:46;;;;;;;69.67;63.37;;;;;;;;;;4972644;28;20459;-71
2021/06/30 03:44:13;;;;;;;69.40;63.13;;;;;;;;;;4973340;28;20455;-68
2021/06/30 03:46:40;;;;;;;68.80;62.20;;;;;;;;;;4973203;28;20450;-68
2021/06/30 03:49:07;;;;;;;67.00;61.10;;;;;;;;;;4972657;28;20497;-68
2021/06/30 03:51:34;;;;;;;67.63;62.03;;;;;;;;;;4973059;28;20451;-68
2021/06/30 03:54:01;;;;;;;68.63;62.73;;;;;;;;;;4973030;28;20766;-68
2021/06/30 03:56:28;;;;;;;68.43;62.40;;;;;;;;;;4972729;28;20483;-68
2021/06/30 03:58:58;;;;;;;72.20;66.00;;;;;;;;;;4972797;28;20471;-70
2021/06/30 04:01:25;;;;;;;71.73;65.30;;;;;;;;;;4972473;28;20830;-68
2021/06/30 04:03:55;;;;;;;74.30;67.90;;;;;;;;;;4973016;28;20455;-69
2021/06/30 04:06:22;;;;;;;75.73;69.83;;;;;;;;;;4973086;28;20447;-68
2021/06/30 04:08:49;;;;;;;78.00;71.70;;;;;;;;;;4972717;28;20489;-69
2021/06/30 04:11:16;;;;;;;74.10;68.40;;;;;;;;;;4972408;28;20458;-68
2021/06/30 04:13:44;;;;;;;71.00;65.53;;;;;;;;;;4975051;28;20816;-68
2021/06/30 04:16:12;;;;;;;73.47;68.07;;;;;;;;;;4976858;28;20499;-67
2021/06/30 04:18:39;;;;;;;73.93;68.43;;;;;;;;;;4976132;28;20475;-70
2021/06/30 04:21:09;;;;;;;73.83;68.13;;;;;;;;;;4975917;28;20949;-70
2021/06/30 04:23:36;;;;;;;74.07;68.53;;;;;;;;;;4976073;28;20954;-70
2021/06/30 04:26:03;;;;;;;75.17;69.57;;;;;;;;;;4976677;28;20440;-70
2021/06/30 04:28:30;;;;;;;74.40;69.10;;;;;;;;;;4976356;28;20839;-70
2021/06/30 04:30:57;;;;;;;78.10;72.40;;;;;;;;;;4976319;28;20455;-70
2021/06/30 04:33:26;;;;;;;79.00;73.40;;;;;;;;;;4976429;28;20832;-70
2021/06/30 04:35:53;;;;;;;78.70;73.10;;;;;;;;;;4976446;28;20856;-70
2021/06/30 04:38:24;;;;;;;78.33;72.60;;;;;;;;;;4976211;28;20534;-68
2021/06/30 04:40:51;;;;;;;78.20;72.70;;;;;;;;;;4976183;28;20442;-70
2021/06/30 04:43:18;;;;;;;75.73;70.30;;;;;;;;;;4976163;28;20461;-70
2021/06/30 04:45:45;;;;;;;73.37;68.07;;;;;;;;;;4976398;28;20469;-69
2021/06/30 04:48:12;;;;;;;79.63;73.93;;;;;;;;;;4976190;28;20450;-70
2021/06/30 04:50:41;;;;;;;79.60;74.20;;;;;;;;;;4975937;28;20451;-70
2021/06/30 04:53:08;;;;;;;81.30;75.73;;;;;;;;;;4975849;28;20959;-70
2021/06/30 04:55:35;;;;;;;85.47;79.50;;;;;;;;;;4975465;28;20487;-68
2021/06/30 04:58:02;;;;;;;85.73;80.03;;;;;;;;;;4976097;28;20545;-70
2021/06/30 05:00:29;;;;;;;86.20;80.30;;;;;;;;;;4975964;28;20446;-70
2021/06/30 05:02:57;;;;;;;87.30;81.27;;;;;;;;;;4976065;28;20461;-70
2021/06/30 05:05:24;;;;;;;86.27;80.47;;;;;;;;;;4975761;28;20965;-70
2021/06/30 05:07:52;;;;;;;87.70;81.60;;;;;;;;;;4975881;28;20466;-70
2021/06/30 05:10:20;;;;;;;79.50;74.20;;;;;;;;;;4974969;28;20489;-69
2021/06/30 05:12:47;;;;;;;85.70;79.90;;;;;;;;;;4975933;28;20461;-70
2021/06/30 05:15:14;;;;;;;80.43;75.13;;;;;;;;;;4975764;28;20443;-68
2021/06/30 05:17:41;;;;;;;80.67;75.47;;;;;;;;;;4975665;28;20469;-69
2021/06/30 05:20:09;;;;;;;85.10;79.40;;;;;;;;;;4975564;28;20471;-68
2021/06/30 05:22:36;;;;;;;87.50;81.67;;;;;;;;;;4975817;28;20451;-69
2021/06/30 05:25:05;;;;;;;84.77;79.10;;;;;;;;;;4975310;28;20451;-68
2021/06/30 05:27:32;;;;;;;82.53;76.97;;;;;;;;;;4974992;28;20820;-67
2021/06/30 05:29:59;;;;;;;84.83;79.13;;;;;;;;;;4975777;28;20467;-68
2021/06/30 05:32:26;;;;;;;84.87;79.07;;;;;;;;;;4976766;28;20447;-69
2021/06/30 05:34:53;;;;;;;85.13;79.33;;;;;;;;;;4976012;28;20485;-70
2021/06/30 05:37:21;;;;;;;88.70;82.50;;;;;;;;;;4977389;28;20491;-69
2021/06/30 05:39:48;;;;;;;133.00;124.60;;;;;;;;;;4975837;28;20845;-68
2021/06/30 05:42:16;;;;;;;111.07;104.17;;;;;;;;;;4975308;28;20458;-68
2021/06/30 05:44:43;;;;;;;92.60;86.60;;;;;;;;;;4975324;28;20455;-68
2021/06/30 05:47:10;;;;;;;91.47;85.47;;;;;;;;;;4975159;28;20454;-69
2021/06/30 05:49:37;;;;;;;90.70;84.73;;;;;;;;;;4975150;28;20471;-68
2021/06/30 05:52:05;;;;;;;98.50;92.30;;;;;;;;;;4974535;28;20474;-68
2021/06/30 05:54:32;;;;;;;99.07;92.97;;;;;;;;;;4975326;28;20802;-68
2021/06/30 05:56:59;;;;;;;96.47;90.47;;;;;;;;;;4975017;28;20487;-68
2021/06/30 05:59:28;;;;;;;90.17;84.27;;;;;;;;;;4975136;28;20476;-69
2021/06/30 06:01:55;;;;;;;93.60;87.60;;;;;;;;;;4974435;28;20820;-69
2021/06/30 06:04:22;;;;;;;90.97;85.03;;;;;;;;;;4974662;28;20448;-68
2021/06/30 06:06:49;;;;;;;90.03;84.13;;;;;;;;;;4974595;28;20448;-67
2021/06/30 06:09:16;;;;;;;89.37;83.37;;;;;;;;;;4975492;28;20479;-68
2021/06/30 06:11:43;;;;;;;94.13;87.93;;;;;;;;;;4974692;28;20451;-68
2021/06/30 06:14:10;;;;;;;85.50;79.50;;;;;;;;;;4974751;28;20448;-68
2021/06/30 06:16:39;;;;;;;93.83;87.73;;;;;;;;;;4974525;28;20494;-68
2021/06/30 06:19:07;;;;;;;89.67;83.77;;;;;;;;;;4974037;28;20481;-68
2021/06/30 06:21:35;;;;;;;97.67;91.37;;;;;;;;;;4974517;28;20455;-68
2021/06/30 06:24:02;;;;;;;89.40;83.60;;;;;;;;;;4974647;28;20455;-68
2021/06/30 06:26:30;;;;;;;93.90;87.83;;;;;;;;;;4975768;28;20821;-69
2021/06/30 06:28:57;;;;;;;96.73;90.47;;;;;;;;;;4978879;28;20471;-69
2021/06/30 06:31:27;;;;;;;90.13;84.23;;;;;;;;;;4978691;28;20477;-68
2021/06/30 06:33:55;;;;;;;93.90;87.90;;;;;;;;;;4979241;28;20990;-68
2021/06/30 06:36:24;;;;;;;92.73;86.63;;;;;;;;;;4977865;28;20493;-68
2021/06/30 06:38:51;;;;;;;96.50;90.03;;;;;;;;;;4977801;28;20471;-67
2021/06/30 06:41:19;;;;;;;92.97;86.90;;;;;;;;;;4974066;28;20479;-68
2021/06/30 06:43:46;;;;;;;96.23;90.03;;;;;;;;;;4974511;28;20827;-68
2021/06/30 06:46:13;;;;;;;94.30;87.80;;;;;;;;;;4974182;28;20458;-67
2021/06/30 06:48:42;;;;;;;98.90;92.40;;;;;;;;;;4974316;28;20511;-68
2021/06/30 06:51:10;;;;;;;99.27;92.87;;;;;;;;;;4973918;28;20506;-67
2021/06/30 06:53:38;;;;;;;163.03;154.13;;;;;;;;;;4974169;28;20451;-69
2021/06/30 06:56:09;;;;;;;205.27;194.90;;;;;;;;;;4973656;28;20491;-68
2021/06/30 06:58:36;;;;;;;191.47;181.27;;;;;;;;;;4973954;28;20530;-67
2021/06/30 07:01:05;;;;;;;189.93;179.93;;;;;;;;;;4973699;28;20458;-66
2021/06/30 07:03:32;;;;;;;195.53;184.57;;;;;;;;;;4973962;28;20451;-68
2021/06/30 07:05:59;;;;;;;196.63;186.30;;;;;;;;;;4973663;28;20786;-68
2021/06/30 07:08:27;;;;;;;180.67;170.63;;;;;;;;;;4973824;28;20498;-68
2021/06/30 07:10:55;;;;;;;189.97;179.57;;;;;;;;;;4973627;28;20441;-67
2021/06/30 07:13:22;;;;;;;197.50;187.40;;;;;;;;;;4973678;28;20542;-67
2021/06/30 07:15:49;;;;;;;208.93;198.33;;;;;;;;;;4973499;28;20542;-68
2021/06/30 07:18:16;;;;;;;224.97;213.33;;;;;;;;;;4973168;28;20455;-68
2021/06/30 07:20:44;;;;;;;193.87;183.47;;;;;;;;;;4973180;28;20451;-67
2021/06/30 07:23:11;;;;;;;206.47;196.00;;;;;;;;;;4973329;28;20453;-68
2021/06/30 07:25:40;;;;;;;206.97;196.57;;;;;;;;;;4973182;28;20957;-68
2021/06/30 07:28:08;;;;;;;193.90;183.70;;;;;;;;;;4973413;28;20454;-68
2021/06/30 07:30:35;;;;;;;199.10;189.00;;;;;;;;;;4973382;28;20451;-67
2021/06/30 07:33:02;;;;;;;196.43;186.23;;;;;;;;;;4972844;28;20836;-67
2021/06/30 07:35:29;;;;;;;206.67;196.27;;;;;;;;;;4973284;28;20469;-68
2021/06/30 07:37:57;;;;;;;199.60;189.47;;;;;;;;;;4973149;28;20489;-68
2021/06/30 07:40:24;;;;;;;187.13;176.77;;;;;;;;;;4972830;28;20841;-67
2021/06/30 07:42:52;;;;;;;189.97;179.77;;;;;;;;;;4973327;28;20464;-69
2021/06/30 07:45:20;;;;;;;197.43;187.07;;;;;;;;;;4973140;28;20455;-68
2021/06/30 07:47:47;;;;;;;198.77;188.30;;;;;;;;;;4972998;28;20443;-69
2021/06/30 07:50:16;;;;;;;207.10;196.33;;;;;;;;;;4972999;28;20471;-68
2021/06/30 07:52:44;;;;;;;190.70;180.30;;;;;;;;;;4973593;28;20456;-69
2021/06/30 07:55:11;;;;;;;185.30;175.17;;;;;;;;;;4974246;28;20455;-69
2021/06/30 07:57:38;;;;;;;190.03;179.83;;;;;;;;;;4975575;28;20483;-68
2021/06/30 08:00:08;;;;;;;199.20;189.20;;;;;;;;;;4973707;28;20841;-68
2021/06/30 08:02:36;;;;;;;206.37;195.90;;;;;;;;;;4973224;28;20459;-68
2021/06/30 08:05:03;;;;;;;190.77;180.97;;;;;;;;;;4973006;28;21129;-69
2021/06/30 08:07:30;;;;;;;192.57;182.83;;;;;;;;;;4972538;28;20443;-67
2021/06/30 08:09:58;;;;;;;194.07;183.57;;;;;;;;;;5010639;23;21040;-67
2021/06/30 08:12:25;;;;;;;189.13;178.67;;;;;;;;;;4980391;28;20448;-66
2021/06/30 08:14:52;;;;;;;204.30;193.10;;;;;;;;;;4985105;28;20819;-67
2021/06/30 08:17:21;;;;;;;204.50;193.70;;;;;;;;;;4993023;28;20494;-66
2021/06/30 08:19:48;;;;;;;203.30;192.90;;;;;;;;;;4993508;28;20466;-68
2021/06/30 08:22:15;;;;;;;212.73;202.00;;;;;;;;;;4992863;28;20451;-67
2021/06/30 08:24:43;;;;;;;214.47;203.87;;;;;;;;;;4993494;28;20453;-68
2021/06/30 08:27:11;;;;;;;183.90;173.40;;;;;;;;;;4993542;28;20450;-67
2021/06/30 08:29:38;;;;;;;216.03;204.73;;;;;;;;;;4993328;28;20981;-67
2021/06/30 08:32:06;;;;;;;222.73;210.93;;;;;;;;;;4992929;28;20458;-66
2021/06/30 08:34:35;;;;;;;217.73;205.97;;;;;;;;;;4992822;28;20960;-67
2021/06/30 08:37:05;;;;;;;228.60;217.00;;;;;;;;;;4992964;28;21036;-67
2021/06/30 08:39:32;;;;;;;234.53;222.57;;;;;;;;;;4993336;28;20475;-66
2021/06/30 08:41:59;;;;;;;257.87;244.47;;;;;;;;;;4993017;28;20455;-66
2021/06/30 08:44:26;;;;;;;264.00;250.90;;;;;;;;;;4993170;28;20446;-69
2021/06/30 08:46:56;;;;;;;268.00;254.70;;;;;;;;;;4992916;28;20791;-66
2021/06/30 08:49:25;;;;;;;277.83;263.83;;;;;;;;;;4993500;28;21081;-67
2021/06/30 08:51:54;;;;;;;280.70;266.03;;;;;;;;;;4993480;28;20950;-66
2021/06/30 08:54:22;;;;;;;294.50;279.27;;;;;;;;;;4992938;28;20817;-66
2021/06/30 08:56:49;;;;;;;301.83;286.00;;;;;;;;;;4993541;28;20522;-67
2021/06/30 08:59:16;;;;;;;309.20;292.80;;;;;;;;;;4994565;28;20474;-66
2021/06/30 09:01:45;;;;;;;188.43;177.63;;;;;;;;;;4996481;28;20450;-67
2021/06/30 09:04:12;;;;;;;177.13;166.63;;;;;;;;;;4996730;28;20961;-66
2021/06/30 09:06:40;;;;;;;187.03;176.03;;;;;;;;;;4996944;28;20478;-66
2021/06/30 09:09:10;;;;;;;293.70;278.53;;;;;;;;;;4996578;28;20478;-68
2021/06/30 09:11:37;;;;;;;313.43;297.53;;;;;;;;;;4997044;28;20590;-69
2021/06/30 09:14:25;;;;;;;285.73;271.33;;;;;;;;;;4995909;28;20446;-66
2021/06/30 09:17:09;;;;;;;303.07;287.70;;;;;;;;;;4992817;28;20518;-66
2021/06/30 09:19:52;;;;;;;295.93;280.70;;;;;;;;;;4996565;28;20462;-66
2021/06/30 09:22:20;;;;;;;212.40;200.10;;;;;;;;;;4995959;28;20450;-67
2021/06/30 09:24:49;;;;;;;230.13;216.13;;;;;;;;;;4997045;28;20455;-68
2021/06/30 09:27:16;;;;;;;224.27;211.30;;;;;;;;;;4996179;28;20982;-66
2021/06/30 09:29:44;;;;;;;194.43;182.53;;;;;;;;;;4996813;28;20477;-67
2021/06/30 09:32:11;;;;;;;196.40;184.63;;;;;;;;;;4996330;28;20451;-66
2021/06/30 09:34:39;;;;;;;199.50;187.23;;;;;;;;;;4996425;28;20945;-66
2021/06/30 09:37:07;;;;;;;192.87;181.53;;;;;;;;;;4996658;28;20489;-67
2021/06/30 09:39:37;;;;;;;171.17;161.10;;;;;;;;;;4996379;28;20478;-66
2021/06/30 09:42:06;;;;;;;148.17;139.47;;;;;;;;;;4996239;28;20458;-67
2021/06/30 09:44:34;;;;;;;178.70;169.13;;;;;;;;;;4996053;28;20474;-69
2021/06/30 09:47:01;;;;;;;129.07;121.47;;;;;;;;;;4995619;28;20446;-66
2021/06/30 09:49:28;;;;;;;130.27;122.73;;;;;;;;;;4995368;28;20467;-66
2021/06/30 09:52:06;;;;;;;146.63;138.43;;;;;;;;;;4995556;28;20454;-66
2021/06/30 09:54:34;;;;;;;134.53;126.80;;;;;;;;;;4995402;28;20450;-66
2021/06/30 09:57:03;;;;;;;150.70;142.20;;;;;;;;;;4996144;28;20482;-66
2021/06/30 09:59:35;;;;;;;143.13;135.13;;;;;;;;;;4995590;28;20529;-66
2021/06/30 10:02:03;;;;;;;148.23;139.57;;;;;;;;;;4995670;28;20521;-66
2021/06/30 10:04:32;;;;;;;158.43;149.63;;;;;;;;;;4995954;28;20469;-67
2021/06/30 10:06:59;;;;;;;149.87;141.50;;;;;;;;;;4995812;28;20966;-66
2021/06/30 10:09:27;;;;;;;147.07;138.87;;;;;;;;;;4995350;28;20488;-67
2021/06/30 10:12:01;;;;;;;135.30;127.70;;;;;;;;;;4994858;28;20450;-66
2021/06/30 10:14:28;;;;;;;133.13;125.73;;;;;;;;;;4995827;28;20541;-66
2021/06/30 10:16:57;;;;;;;124.17;117.27;;;;;;;;;;4995523;28;20455;-67
2021/06/30 10:19:25;;;;;;;128.63;121.33;;;;;;;;;;4995619;28;20477;-67
2021/06/30 10:21:52;;;;;;;128.83;121.43;;;;;;;;;;4995200;28;20446;-66
2021/06/30 10:24:20;;;;;;;148.60;140.30;;;;;;;;;;4995922;28;20457;-66
2021/06/30 10:26:47;;;;;;;152.80;144.20;;;;;;;;;;4995629;28;20455;-67
2021/06/30 10:29:14;;;;;;;169.50;160.00;;;;;;;;;;4995132;28;21043;-66
2021/06/30 10:31:43;;;;;;;179.67;169.63;;;;;;;;;;4995358;28;20457;-66
2021/06/30 10:34:12;;;;;;;167.60;157.80;;;;;;;;;;4995084;28;20459;-66
2021/06/30 10:36:43;;;;;;;195.90;185.20;;;;;;;;;;4995609;28;20519;-66
2021/06/30 10:39:11;;;;;;;189.90;179.60;;;;;;;;;;4995136;28;20837;-66
2021/06/30 10:41:42;;;;;;;182.10;171.70;;;;;;;;;;4994866;28;20460;-67
2021/06/30 10:44:11;;;;;;;190.27;179.67;;;;;;;;;;4995017;28;20473;-67
2021/06/30 10:46:38;;;;;;;203.63;193.03;;;;;;;;;;4995139;28;20454;-66
2021/06/30 10:49:27;;;;;;;193.63;183.43;;;;;;;;;;4995397;28;20493;-69
2021/06/30 10:51:55;;;;;;;205.80;195.20;;;;;;;;;;4994458;28;20453;-66
2021/06/30 10:54:40;;;;;;;177.53;167.43;;;;;;;;;;4994818;28;20462;-66
2021/06/30 10:57:37;;;;;;;205.33;194.30;;;;;;;;;;4994866;28;20493;-66
2021/06/30 11:00:14;;;;;;;179.30;169.10;;;;;;;;;;4994658;28;20997;-69
2021/06/30 11:02:41;;;;;;;181.20;171.00;;;;;;;;;;4994930;28;20446;-66
2021/06/30 11:05:27;;;;;;;179.30;169.30;;;;;;;;;;4994358;28;20453;-66
2021/06/30 11:07:56;;;;;;;211.33;200.63;;;;;;;;;;4993994;28;20877;-69
2021/06/30 11:10:42;;;;;;;200.60;189.60;;;;;;;;;;4993772;28;20557;-69
2021/06/30 11:13:09;;;;;;;194.67;184.00;;;;;;;;;;4993811;28;20456;-70
2021/06/30 11:15:44;;;;;;;197.17;186.67;;;;;;;;;;4993961;28;20443;-69
2021/06/30 11:18:29;;;;;;;183.37;173.07;;;;;;;;;;4993692;28;20481;-69
2021/06/30 11:21:00;;;;;;;254.97;241.27;;;;;;;;;;4992985;28;20457;-69
2021/06/30 11:23:30;;;;;;;256.43;242.47;;;;;;;;;;4993714;28;20478;-69
2021/06/30 11:26:17;;;;;;;253.33;239.90;;;;;;;;;;4993181;28;20942;-69
2021/06/30 11:28:44;;;;;;;226.77;214.27;;;;;;;;;;4992758;28;20458;-69
2021/06/30 11:31:26;;;;;;;256.00;242.83;;;;;;;;;;4993205;28;20455;-69
2021/06/30 11:34:03;;;;;;;209.17;197.30;;;;;;;;;;4993502;28;20965;-69
2021/06/30 11:36:37;;;;;;;252.27;238.77;;;;;;;;;;4993325;28;20468;-67
2021/06/30 11:39:08;;;;;;;258.80;245.20;;;;;;;;;;4993316;28;20895;-67
2021/06/30 11:41:42;;;;;;;273.80;259.63;;;;;;;;;;4993056;28;20457;-69
2021/06/30 11:44:10;;;;;;;253.67;240.33;;;;;;;;;;4992646;28;20946;-69
2021/06/30 11:46:38;;;;;;;251.97;238.77;;;;;;;;;;4993723;28;20486;-69
2021/06/30 11:49:06;;;;;;;192.27;182.00;;;;;;;;;;4993200;28;20459;-69
2021/06/30 11:51:33;;;;;;;211.90;199.70;;;;;;;;;;4993135;28;20489;-69
2021/06/30 11:54:00;;;;;;;211.83;199.60;;;;;;;;;;4993153;28;20457;-69
2021/06/30 11:56:40;;;;;;;202.27;190.93;;;;;;;;;;4993342;28;20447;-69
2021/06/30 11:59:08;;;;;;;195.80;184.27;;;;;;;;;;4992816;28;20993;-69
2021/06/30 12:01:37;;;;;;;207.60;196.40;;;;;;;;;;4993230;28;20458;-69
2021/06/30 12:04:15;;;;;;;198.33;186.20;;;;;;;;;;4992711;28;20945;-69
2021/06/30 12:06:42;;;;;;;200.30;187.70;;;;;;;;;;4993034;28;20485;-69
2021/06/30 12:09:14;;;;;;;206.80;195.63;;;;;;;;;;4992963;28;20843;-69
2021/06/30 12:11:43;;;;;;;213.13;201.93;;;;;;;;;;4992561;28;21037;-67
2021/06/30 12:14:12;;;;;;;212.83;201.40;;;;;;;;;;4993115;28;20446;-69
2021/06/30 12:16:43;;;;;;;207.57;196.10;;;;;;;;;;4993190;28;20458;-70
2021/06/30 12:19:10;;;;;;;209.87;198.07;;;;;;;;;;4992929;28;20493;-69
2021/06/30 12:21:38;;;;;;;215.27;203.57;;;;;;;;;;4992441;28;20866;-69
2021/06/30 12:24:13;;;;;;;226.10;214.00;;;;;;;;;;4993031;28;20461;-69
2021/06/30 12:26:55;;;;;;;217.37;205.50;;;;;;;;;;4993215;28;20461;-68
2021/06/30 12:29:23;;;;;;;225.97;213.87;;;;;;;;;;4994596;28;20468;-69
2021/06/30 12:31:50;;;;;;;221.13;209.53;;;;;;;;;;4994698;28;20454;-69
2021/06/30 12:34:17;;;;;;;207.17;195.93;;;;;;;;;;4994414;28;20942;-67
2021/06/30 12:36:45;;;;;;;218.40;207.03;;;;;;;;;;4996792;28;20452;-69
2021/06/30 12:39:19;;;;;;;195.20;184.70;;;;;;;;;;4996710;28;20576;-68
2021/06/30 12:41:57;;;;;;;189.77;179.20;;;;;;;;;;4996409;28;20486;-69
2021/06/30 12:44:25;;;;;;;191.00;180.77;;;;;;;;;;4996610;28;20450;-68
2021/06/30 12:47:05;;;;;;;192.63;182.33;;;;;;;;;;4996767;28;20529;-70
2021/06/30 12:49:32;;;;;;;196.67;185.70;;;;;;;;;;4996291;28;20470;-69
2021/06/30 12:52:00;;;;;;;202.17;191.27;;;;;;;;;;4996337;28;20452;-70
2021/06/30 12:54:27;;;;;;;189.67;179.53;;;;;;;;;;4996281;28;20937;-69
2021/06/30 12:57:00;;;;;;;191.30;181.00;;;;;;;;;;4996280;28;20454;-67
2021/06/30 12:59:29;;;;;;;192.73;182.10;;;;;;;;;;4995874;28;21015;-69
2021/06/30 13:01:57;;;;;;;190.73;180.63;;;;;;;;;;4995962;28;20442;-66
2021/06/30 13:04:31;;;;;;;184.70;174.70;;;;;;;;;;4996380;28;20435;-66
2021/06/30 13:06:59;;;;;;;202.17;191.37;;;;;;;;;;4995837;28;20452;-69
2021/06/30 13:09:26;;;;;;;201.50;190.30;;;;;;;;;;4995660;28;20479;-68
2021/06/30 13:11:56;;;;;;;208.63;197.40;;;;;;;;;;4995498;28;20456;-69
2021/06/30 13:14:24;;;;;;;210.03;198.90;;;;;;;;;;4995849;28;20466;-69
2021/06/30 13:16:53;;;;;;;227.13;215.70;;;;;;;;;;4995557;28;20456;-69
2021/06/30 13:19:22;;;;;;;211.03;199.77;;;;;;;;;;4995557;28;20489;-69
2021/06/30 13:21:50;;;;;;;198.47;187.37;;;;;;;;;;4995341;28;20450;-69
2021/06/30 13:24:20;;;;;;;208.87;197.40;;;;;;;;;;4996202;28;20450;-69
2021/06/30 13:35:34;;;;;;;187.73;177.00;;;;;;;;;;4995708;28;20529;-68
2021/06/30 13:38:02;;;;;;;196.43;185.57;;;;;;;;;;4995638;28;20484;-69
2021/06/30 13:40:31;;;;;;;187.97;177.17;;;;;;;;;;4995298;28;20480;-69
2021/06/30 13:42:59;;;;;;;189.57;178.93;;;;;;;;;;4995371;28;20464;-69
2021/06/30 13:45:27;;;;;;;173.63;163.37;;;;;;;;;;4994894;28;20455;-69
2021/06/30 13:47:55;;;;;;;192.20;181.40;;;;;;;;;;4995151;28;20447;-69
2021/06/30 13:50:23;;;;;;;178.47;168.17;;;;;;;;;;4994854;28;20493;-69
2021/06/30 13:52:50;;;;;;;176.70;166.50;;;;;;;;;;4994899;28;20820;-69
2021/06/30 13:55:18;;;;;;;176.10;166.00;;;;;;;;;;4990806;28;20448;-69
2021/06/30 13:57:45;;;;;;;174.77;164.83;;;;;;;;;;4979739;28;20720;-69
2021/06/30 14:00:12;;;;;;;163.80;154.13;;;;;;;;;;4975512;28;20460;-66
2021/06/30 14:02:40;;;;;;;161.27;151.53;;;;;;;;;;4975669;28;20474;-69
2021/06/30 14:05:08;;;;;;;165.37;155.47;;;;;;;;;;4975448;28;20457;-69
2021/06/30 14:07:36;;;;;;;160.23;150.90;;;;;;;;;;4975379;28;20459;-67
2021/06/30 14:10:04;;;;;;;175.53;165.23;;;;;;;;;;4995690;23;20509;-70
2021/06/30 14:12:31;;;;;;;166.07;155.97;;;;;;;;;;4987140;28;20461;-70
2021/06/30 14:14:58;;;;;;;167.67;157.67;;;;;;;;;;4987354;28;20953;-70
2021/06/30 14:17:26;;;;;;;151.47;142.27;;;;;;;;;;4996182;28;20450;-71
2021/06/30 14:19:53;;;;;;;134.80;126.10;;;;;;;;;;5002662;28;20577;-70